Time;durP1;ratioP1;P1;durP2;ratioP2;P2;SDS_P1;SDS_P2;PMS_P1;PMS_P2;Temp;Humidity;BMP_temperature;BMP_pressure;BME280_temperature;BME280_humidity;BME280_pressure;Samples;Min_cycle;Max_cycle;Signal;HPM_P1;HPM_P2
2021/12/28 00:01:17;;;;;;;;;;;;;;;12.66;62.80;98502.44;4962638;28;6788;-71
2021/12/28 00:03:45;;;;;;;;;;;;;;;12.72;62.31;98507.59;4960983;28;6807;-71
2021/12/28 00:06:14;;;;;;;;;;;;;;;12.77;61.77;98503.38;4959225;28;7205;-71
2021/12/28 00:08:40;;;;;;;;;;;;;;;12.82;62.07;98506.84;4962382;28;6812;-71
2021/12/28 00:11:07;;;;;;;;;;;;;;;12.87;62.14;98505.19;4944119;28;7249;-70
2021/12/28 00:13:34;;;;;;;;;;;;;;;12.90;61.88;98507.75;4961203;28;7016;-70
2021/12/28 00:18:30;;;;;;;;;;;;;;;12.98;61.32;98489.81;4956865;28;6969;-70
2021/12/28 00:21:02;;;;;;;;;;;;;;;12.98;60.78;98483.81;4957549;28;6911;-70
2021/12/28 00:23:38;;;;;;;;;;;;;;;12.99;61.57;98485.53;4958166;28;6812;-70
2021/12/28 00:26:11;;;;;;;;;;;;;;;12.99;61.67;98481.28;4963474;28;8074;-70
2021/12/28 00:28:37;;;;;;;;;;;;;;;13.00;60.70;98489.84;4959250;28;6866;-70
2021/12/28 00:31:04;;;;;;;;;;;;;;;13.00;60.92;98493.28;4974754;28;6812;-70
2021/12/28 00:33:30;;;;;;;;;;;;;;;13.00;61.47;98494.97;4959299;28;6955;-70
2021/12/28 00:35:56;;;;;;;;;;;;;;;13.00;61.14;98497.56;4958024;28;6796;-70
2021/12/28 00:38:27;;;;;;;;;;;;;;;12.98;60.39;98489.81;4944226;28;6784;-70
2021/12/28 00:40:58;;;;;;;;;;;;;;;12.98;61.03;98491.53;4957225;28;7856;-71
2021/12/28 00:43:29;;;;;;;;;;;;;;;12.97;60.50;98492.41;4957917;28;9666;-71
2021/12/28 00:45:55;;;;;;;;;;;;;;;12.94;60.79;98493.22;4960465;28;6904;-71
2021/12/28 00:48:21;;;;;;;;;;;;;;;12.90;60.80;98482.06;4958487;28;6816;-71
2021/12/28 00:50:49;;;;;;;;;;;;;;;12.87;60.16;98483.72;4943553;28;8054;-71
2021/12/28 00:53:15;;;;;;;;;;;;;;;12.83;60.61;98472.56;4959358;28;6819;-71
2021/12/28 00:55:41;;;;;;;;;;;;;;;12.81;61.36;98479.41;4958771;28;6914;-71
2021/12/28 00:58:07;;;;;;;;;;;;;;;12.77;61.11;98469.97;4958720;28;7221;-71
2021/12/28 01:00:37;;;;;;;;;;;;;;;12.75;61.04;98471.66;4957805;28;8087;-71
2021/12/28 01:03:06;;;;;;;;;;;;;;;12.71;60.89;98469.91;4942365;28;6816;-71
2021/12/28 01:05:33;;;;;;;;;;;;;;;12.65;60.36;98468.13;4942319;28;6828;-71
2021/12/28 01:07:59;;;;;;;;;;;;;;;12.58;60.11;98459.53;4958312;28;7246;-70
2021/12/28 01:10:30;;;;;;;;;;;;;;;12.51;60.37;98455.16;4945099;28;6816;-70
2021/12/28 01:12:57;;;;;;;;;;;;;;;12.43;60.78;98457.69;4957546;28;6990;-70
2021/12/28 01:15:28;;;;;;;;;;;;;;;12.40;60.62;98454.22;4943356;28;6808;-70
2021/12/28 01:17:54;;;;;;;;;;;;;;;12.35;60.44;98457.59;4942828;28;7205;-71
2021/12/28 01:20:20;;;;;;;;;;;;;;;12.33;60.99;98459.28;4961363;28;6998;-71
2021/12/28 01:22:46;;;;;;;;;;;;;;;12.29;61.29;98462.69;4957555;28;7010;-71
2021/12/28 01:25:16;;;;;;;;;;;;;;;12.28;61.29;98457.53;4960196;28;6807;-70
2021/12/28 01:27:41;;;;;;;;;;;;;;;12.24;61.16;98451.50;4957402;28;6967;-70
2021/12/28 01:30:09;;;;;;;;;;;;;;;12.22;60.56;98460.88;4957530;28;6784;-70
2021/12/28 01:32:35;;;;;;;;;;;;;;;12.17;61.01;98453.13;4960250;28;7101;-70
2021/12/28 01:35:04;;;;;;;;;;;;;;;12.15;60.48;98452.28;4959059;28;6892;-70
2021/12/28 01:37:30;;;;;;;;;;;;;;;12.14;61.42;98452.25;4950758;28;6907;-70
2021/12/28 01:39:56;;;;;;;;;;;;;;;12.15;61.20;98449.69;4958065;28;6812;-70
2021/12/28 01:42:21;;;;;;;;;;;;;;;12.21;62.27;98459.16;4941869;28;7002;-70
2021/12/28 01:44:47;;;;;;;;;;;;;;;12.33;61.78;98448.16;4958621;28;7026;-70
2021/12/28 01:47:16;;;;;;;;;;;;;;;12.43;62.25;98446.53;4954134;28;6815;-70
2021/12/28 01:49:42;;;;;;;;;;;;;;;12.57;61.92;98444.97;4941572;28;6828;-71
2021/12/28 01:52:10;;;;;;;;;;;;;;;12.70;62.19;98445.03;4958021;28;7114;-71
2021/12/28 01:54:35;;;;;;;;;;;;;;;12.78;62.43;98445.97;4959520;28;6974;-71
2021/12/28 01:57:01;;;;;;;;;;;;;;;12.87;62.66;98448.63;4956378;28;7513;-71
2021/12/28 01:59:27;;;;;;;;;;;;;;;12.94;62.29;98438.34;4958050;28;6974;-71
2021/12/28 02:01:53;;;;;;;;;;;;;;;12.97;61.84;98436.66;4957347;28;6784;-71
2021/12/28 02:04:26;;;;;;;;;;;;;;;13.02;62.50;98428.97;4958278;28;6919;-71
2021/12/28 02:06:55;;;;;;;;;;;;;;;13.06;62.58;98425.59;4956238;28;7889;-71
2021/12/28 02:09:21;;;;;;;;;;;;;;;13.10;62.25;98427.31;4955650;28;8960;-71
2021/12/28 02:11:47;;;;;;;;;;;;;;;13.14;62.33;98420.50;4958503;28;6920;-71
2021/12/28 02:14:14;;;;;;;;;;;;;;;13.16;62.31;98422.22;4956281;28;7260;-71
2021/12/28 02:16:43;;;;;;;;;;;;;;;13.19;61.72;98421.41;4940407;28;6796;-71
2021/12/28 02:19:12;;;;;;;;;;;;;;;13.20;61.94;98423.94;4953306;28;7164;-71
2021/12/28 02:21:38;;;;;;;;;;;;;;;13.22;61.63;98420.53;4954644;28;6800;-71
2021/12/28 02:24:07;;;;;;;;;;;;;;;13.23;61.76;98425.69;4957182;28;6792;-70
2021/12/28 02:26:34;;;;;;;;;;;;;;;13.23;62.04;98414.53;4970983;28;7200;-70
2021/12/28 02:29:00;;;;;;;;;;;;;;;13.23;61.31;98414.53;4958809;28;7007;-70
2021/12/28 02:31:27;;;;;;;;;;;;;;;13.23;61.70;98415.41;4938922;28;7842;-70
2021/12/28 02:33:54;;;;;;;;;;;;;;;13.23;62.10;98417.09;4957893;28;6792;-70
2021/12/28 02:36:20;;;;;;;;;;;;;;;13.21;61.67;98417.09;4955346;28;7436;-70
2021/12/28 02:38:48;;;;;;;;;;;;;;;13.19;60.99;98414.53;4953285;28;6876;-70
2021/12/28 02:41:15;;;;;;;;;;;;;;;13.15;61.74;98411.91;4954750;28;6803;-70
2021/12/28 02:43:45;;;;;;;;;;;;;;;13.11;60.59;98413.59;4937721;28;7099;-70
2021/12/28 02:46:11;;;;;;;;;;;;;;;13.07;61.63;98419.59;4956962;28;7067;-71
2021/12/28 02:48:38;;;;;;;;;;;;;;;13.02;60.80;98416.13;4954772;28;8242;-71
2021/12/28 02:51:12;;;;;;;;;;;;;;;12.99;61.31;98414.41;4953107;28;6877;-71
2021/12/28 02:53:38;;;;;;;;;;;;;;;12.97;61.54;98410.94;4953295;28;7255;-70
2021/12/28 02:56:05;;;;;;;;;;;;;;;12.95;60.72;98401.53;4955633;28;6810;-70
2021/12/28 02:58:39;;;;;;;;;;;;;;;12.92;60.93;98402.38;4942124;28;6880;-70
2021/12/28 03:01:30;;;;;;;;;;;;;;;12.86;60.78;98398.03;4952846;28;6903;-70
2021/12/28 03:04:04;;;;;;;;;;;;;;;12.81;61.60;98398.88;4940905;28;7023;-70
2021/12/28 03:06:32;;;;;;;;;;;;;;;12.73;61.04;98389.38;4963208;28;9519;-70
2021/12/28 03:09:00;;;;;;;;;;;;;;;12.67;60.65;98388.50;4943480;28;6980;-70
2021/12/28 03:11:28;;;;;;;;;;;;;;;12.60;60.64;98385.88;4945666;28;6976;-71
2021/12/28 03:14:00;;;;;;;;;;;;;;;12.54;60.54;98387.53;4963403;28;6792;-71
2021/12/28 03:16:30;;;;;;;;;;;;;;;12.45;61.18;98386.59;4960274;28;7187;-71
2021/12/28 03:18:57;;;;;;;;;;;;;;;12.41;60.73;98389.13;4962880;28;6804;-71
2021/12/28 03:21:23;;;;;;;;;;;;;;;12.34;60.95;98383.94;4962271;28;7992;-71
2021/12/28 03:23:51;;;;;;;;;;;;;;;12.32;61.54;98383.06;4961239;28;6792;-70
2021/12/28 03:26:18;;;;;;;;;;;;;;;12.29;61.18;98380.47;4961387;28;7294;-70
2021/12/28 03:28:45;;;;;;;;;;;;;;;12.26;61.74;98382.16;4964067;28;7156;-70
2021/12/28 03:31:15;;;;;;;;;;;;;;;12.25;61.82;98376.16;4966445;28;7920;-70
2021/12/28 03:33:44;;;;;;;;;;;;;;;12.26;61.72;98375.31;4963232;28;7437;-70
2021/12/28 03:36:14;;;;;;;;;;;;;;;12.30;62.15;98381.31;4947694;28;8396;-70
2021/12/28 03:38:41;;;;;;;;;;;;;;;12.33;61.52;98378.81;4964935;28;6800;-70
2021/12/28 03:41:09;;;;;;;;;;;;;;;12.38;62.06;98366.00;4964249;28;6800;-70
2021/12/28 03:43:43;;;;;;;;;;;;;;;12.42;61.54;98366.03;4963508;28;7713;-70
2021/12/28 03:46:09;;;;;;;;;;;;;;;12.48;62.14;98362.66;4962944;28;6823;-70
2021/12/28 03:48:36;;;;;;;;;;;;;;;12.53;61.48;98360.97;4963857;28;6812;-70
2021/12/28 03:51:03;;;;;;;;;;;;;;;12.58;61.66;98356.72;4966427;28;6804;-70
2021/12/28 03:53:29;;;;;;;;;;;;;;;12.62;62.15;98357.63;4964263;28;6808;-70
2021/12/28 03:55:55;;;;;;;;;;;;;;;12.68;61.71;98349.09;4963090;28;6804;-70
2021/12/28 03:58:21;;;;;;;;;;;;;;;12.70;61.53;98340.53;4961454;28;6950;-70
2021/12/28 04:00:48;;;;;;;;;;;;;;;12.73;62.18;98342.25;4963248;28;8518;-70
2021/12/28 04:03:15;;;;;;;;;;;;;;;12.77;61.29;98336.28;4961374;28;6800;-70
2021/12/28 04:05:44;;;;;;;;;;;;;;;12.80;61.96;98343.16;4959471;28;7067;-70
2021/12/28 04:08:10;;;;;;;;;;;;;;;12.83;61.17;98335.47;4943423;28;7885;-70
2021/12/28 04:10:52;;;;;;;;;;;;;;;12.85;62.06;98334.63;4958573;28;6811;-70
2021/12/28 04:13:20;;;;;;;;;;;;;;;12.88;60.91;98326.06;4961336;28;7175;-70
2021/12/28 04:15:47;;;;;;;;;;;;;;;12.90;61.91;98316.66;4960557;28;7186;-70
2021/12/28 04:18:14;;;;;;;;;;;;;;;12.94;61.75;98323.53;4958337;28;6891;-70
2021/12/28 04:20:40;;;;;;;;;;;;;;;12.94;61.25;98318.38;4961248;28;7034;-70
2021/12/28 04:23:06;;;;;;;;;;;;;;;12.96;61.56;98306.38;4959031;28;7081;-70
2021/12/28 04:25:33;;;;;;;;;;;;;;;12.97;61.46;98305.53;4960627;28;6944;-70
2021/12/28 04:27:59;;;;;;;;;;;;;;;12.98;61.42;98308.97;4973017;28;6827;-70
2021/12/28 04:30:25;;;;;;;;;;;;;;;12.99;61.47;98302.97;4959332;28;6807;-70
2021/12/28 04:32:50;;;;;;;;;;;;;;;12.98;60.96;98304.66;4963270;28;6826;-70
2021/12/28 04:35:16;;;;;;;;;;;;;;;12.99;60.82;98305.53;4958155;28;6800;-70
2021/12/28 04:37:43;;;;;;;;;;;;;;;12.99;60.82;98300.41;4957030;28;6800;-70
2021/12/28 04:40:12;;;;;;;;;;;;;;;12.99;61.00;98305.53;4959467;28;6887;-70
2021/12/28 04:42:42;;;;;;;;;;;;;;;12.97;60.97;98302.13;4941989;28;7074;-70
2021/12/28 04:45:10;;;;;;;;;;;;;;;12.97;61.88;98296.97;4956366;28;7114;-70
2021/12/28 04:47:37;;;;;;;;;;;;;;;12.98;61.41;98296.13;4957318;28;6808;-70
2021/12/28 04:50:06;;;;;;;;;;;;;;;12.98;61.39;98299.53;4961863;28;7126;-71
2021/12/28 04:52:37;;;;;;;;;;;;;;;12.99;61.16;98300.41;4959452;28;6812;-71
2021/12/28 04:55:06;;;;;;;;;;;;;;;12.99;61.33;98296.13;4942652;28;6856;-71
2021/12/28 04:57:32;;;;;;;;;;;;;;;13.01;61.63;98304.72;4942687;28;6812;-70
2021/12/28 04:59:58;;;;;;;;;;;;;;;13.02;61.79;98298.72;4955662;28;7178;-70
2021/12/28 05:02:24;;;;;;;;;;;;;;;13.02;60.84;98300.41;4939563;28;7869;-70
2021/12/28 05:04:50;;;;;;;;;;;;;;;13.03;61.69;98296.97;4958227;28;6951;-70
2021/12/28 05:07:15;;;;;;;;;;;;;;;13.04;61.41;98301.31;4959023;28;7219;-70
2021/12/28 05:09:41;;;;;;;;;;;;;;;13.05;60.81;98297.88;4942249;28;6776;-71
2021/12/28 05:12:08;;;;;;;;;;;;;;;13.06;60.70;98304.72;4957162;28;7962;-71
2021/12/28 05:14:33;;;;;;;;;;;;;;;13.06;60.76;98308.16;4959544;28;7078;-70
2021/12/28 05:16:59;;;;;;;;;;;;;;;13.07;61.54;98309.03;4959792;28;6931;-70
2021/12/28 05:19:25;;;;;;;;;;;;;;;13.06;60.83;98308.16;4958888;28;7377;-70
2021/12/28 05:21:50;;;;;;;;;;;;;;;13.09;60.78;98314.19;4960848;28;6879;-71
2021/12/28 05:24:16;;;;;;;;;;;;;;;13.09;61.23;98317.59;4956634;28;6853;-70
2021/12/28 05:26:42;;;;;;;;;;;;;;;13.09;61.61;98315.03;4958105;28;6800;-70
2021/12/28 05:29:07;;;;;;;;;;;;;;;13.11;61.14;98305.59;4960013;28;6792;-70
2021/12/28 05:31:33;;;;;;;;;;;;;;;13.13;60.66;98309.03;4960170;28;7184;-70
2021/12/28 05:33:59;;;;;;;;;;;;;;;13.15;60.67;98304.78;4960336;28;6872;-70
2021/12/28 05:36:26;;;;;;;;;;;;;;;13.15;61.23;98302.19;4957892;28;7080;-70
2021/12/28 05:38:52;;;;;;;;;;;;;;;13.17;61.03;98297.03;4959696;28;6812;-70
2021/12/28 05:41:18;;;;;;;;;;;;;;;13.16;60.74;98293.63;4974885;28;6938;-70
2021/12/28 05:43:44;;;;;;;;;;;;;;;13.16;60.50;98285.91;4959613;28;7122;-70
2021/12/28 05:46:09;;;;;;;;;;;;;;;13.16;61.21;98280.75;4960579;28;8753;-70
2021/12/28 05:48:35;;;;;;;;;;;;;;;13.15;61.28;98278.19;4958069;28;7086;-71
2021/12/28 05:51:01;;;;;;;;;;;;;;;13.13;60.62;98282.47;4946860;28;6845;-71
2021/12/28 05:53:27;;;;;;;;;;;;;;;13.13;61.00;98267.88;4955815;28;6788;-71
2021/12/28 05:55:52;;;;;;;;;;;;;;;13.13;60.50;98262.72;4958146;28;6800;-70
2021/12/28 05:58:18;;;;;;;;;;;;;;;13.12;60.76;98268.72;4940320;28;6987;-70
2021/12/28 06:00:44;;;;;;;;;;;;;;;13.12;61.13;98276.44;4957850;28;6911;-70
2021/12/28 06:03:10;;;;;;;;;;;;;;;13.14;60.62;98279.03;4959300;28;6779;-70
2021/12/28 06:05:35;;;;;;;;;;;;;;;13.13;61.30;98274.75;4974645;28;7117;-70
2021/12/28 06:08:01;;;;;;;;;;;;;;;13.13;61.42;98280.72;4959699;28;6800;-70
2021/12/28 06:10:27;;;;;;;;;;;;;;;13.13;61.19;98283.31;4958276;28;6792;-70
2021/12/28 06:12:52;;;;;;;;;;;;;;;13.14;60.21;98284.19;4958948;28;6934;-71
2021/12/28 06:15:18;;;;;;;;;;;;;;;13.15;61.12;98286.75;4962731;28;6800;-70
2021/12/28 06:17:44;;;;;;;;;;;;;;;13.16;60.29;98285.91;4956575;28;6792;-70
2021/12/28 06:20:10;;;;;;;;;;;;;;;13.15;60.52;98291.91;4956547;28;7931;-71
2021/12/28 06:22:36;;;;;;;;;;;;;;;13.17;60.32;98287.63;4936448;28;7323;-70
2021/12/28 06:25:03;;;;;;;;;;;;;;;13.18;60.47;98297.06;4941135;28;6980;-70
2021/12/28 06:27:29;;;;;;;;;;;;;;;13.19;61.27;98292.78;4957440;28;7876;-70
2021/12/28 06:29:54;;;;;;;;;;;;;;;13.22;60.81;98300.50;4958799;28;6883;-70
2021/12/28 06:32:20;;;;;;;;;;;;;;;13.23;60.34;98296.19;4960107;28;7336;-70
2021/12/28 06:34:46;;;;;;;;;;;;;;;13.21;60.18;98291.06;4954843;28;7238;-70
2021/12/28 06:37:11;;;;;;;;;;;;;;;13.19;60.98;98291.06;4954139;28;6874;-70
2021/12/28 06:39:37;;;;;;;;;;;;;;;13.19;61.07;98293.63;4958087;28;7770;-70
2021/12/28 06:42:04;;;;;;;;;;;;;;;13.18;60.36;98291.03;4960478;28;6880;-70
2021/12/28 06:44:30;;;;;;;;;;;;;;;13.14;60.25;98279.91;4954493;28;7928;-70
2021/12/28 06:46:55;;;;;;;;;;;;;;;13.10;59.91;98280.72;4955769;28;6792;-70
2021/12/28 06:49:21;;;;;;;;;;;;;;;13.03;59.75;98267.00;4957690;28;7223;-71
2021/12/28 06:51:46;;;;;;;;;;;;;;;12.95;59.89;98270.41;4959445;28;8093;-71
2021/12/28 06:54:13;;;;;;;;;;;;;;;12.85;60.06;98272.94;4954053;28;6971;-71
2021/12/28 06:56:39;;;;;;;;;;;;;;;12.75;59.98;98268.59;4955643;28;7111;-71
2021/12/28 06:59:05;;;;;;;;;;;;;;;12.64;59.94;98258.25;4958094;28;7003;-70
2021/12/28 07:01:30;;;;;;;;;;;;;;;12.54;60.72;98266.75;4960672;28;7145;-70
2021/12/28 07:03:56;;;;;;;;;;;;;;;12.45;61.08;98265.84;4963321;28;7532;-70
2021/12/28 07:06:24;;;;;;;;;;;;;;;12.44;60.86;98271.84;4964208;28;7036;-70
2021/12/28 07:08:50;;;;;;;;;;;;;;;12.45;61.18;98270.13;4960564;28;8636;-70
2021/12/28 07:11:17;;;;;;;;;;;;;;;12.45;60.63;98276.13;4962051;28;6823;-70
2021/12/28 07:13:43;;;;;;;;;;;;;;;12.44;60.53;98282.13;4960165;28;6832;-70
2021/12/28 07:16:09;;;;;;;;;;;;;;;12.44;61.39;98270.97;4960860;28;6895;-70
2021/12/28 07:18:34;;;;;;;;;;;;;;;12.43;61.23;98269.25;4945226;28;6985;-70
2021/12/28 07:21:02;;;;;;;;;;;;;;;12.43;60.45;98279.53;4964474;28;6875;-70
2021/12/28 07:23:29;;;;;;;;;;;;;;;12.42;61.23;98290.66;4959798;28;6891;-71
2021/12/28 07:25:55;;;;;;;;;;;;;;;12.42;60.81;98293.22;4960922;28;7187;-70
2021/12/28 07:28:24;;;;;;;;;;;;;;;12.43;60.81;98298.38;4961101;28;6804;-70
2021/12/28 07:30:51;;;;;;;;;;;;;;;12.44;60.96;98301.81;4962029;28;6895;-70
2021/12/28 07:33:17;;;;;;;;;;;;;;;12.45;60.81;98303.53;4980180;28;7006;-70
2021/12/28 07:35:43;;;;;;;;;;;;;;;12.47;60.82;98304.41;4944578;28;8649;-70
2021/12/28 07:38:09;;;;;;;;;;;;;;;12.47;61.00;98306.97;4960276;28;7243;-70
2021/12/28 07:40:36;;;;;;;;;;;;;;;12.48;60.96;98306.13;4959319;28;7316;-70
2021/12/28 07:43:02;;;;;;;;;;;;;;;12.51;61.45;98301.00;4959452;28;6808;-71
2021/12/28 07:45:27;;;;;;;;;;;;;;;12.53;61.38;98296.72;4945391;28;6800;-70
2021/12/28 07:47:53;;;;;;;;;;;;;;;12.56;61.84;98290.75;4958700;28;7425;-70
2021/12/28 07:50:20;;;;;;;;;;;;;;;12.60;61.59;98282.19;4957423;28;6825;-70
2021/12/28 07:52:46;;;;;;;;;;;;;;;12.66;61.74;98277.09;4962557;28;6812;-70
2021/12/28 07:55:15;;;;;;;;;;;;;;;12.73;62.27;98272.84;4961093;28;6995;-70
2021/12/28 07:57:42;;;;;;;;;;;;;;;12.82;61.84;98275.47;4962330;28;6816;-70
2021/12/28 08:00:16;;;;;;;;;;;;;;;12.95;62.55;98293.53;4962805;28;6827;-70
2021/12/28 08:02:44;;;;;;;;;;;;;;;13.06;62.32;98286.72;4962634;28;7077;-70
2021/12/28 08:05:12;;;;;;;;;;;;;;;13.17;61.96;98297.03;4962163;28;6816;-70
2021/12/28 08:07:38;;;;;;;;;;;;;;;13.25;61.74;98300.50;4958993;28;7861;-70
2021/12/28 08:10:05;;;;;;;;;;;;;;;13.32;61.66;98298.81;4945081;28;6923;-70
2021/12/28 08:12:31;;;;;;;;;;;;;;;13.39;61.19;98297.97;4961402;28;7108;-70
2021/12/28 08:14:57;;;;;;;;;;;;;;;13.46;61.81;98297.16;4962467;28;7434;-70
2021/12/28 08:17:23;;;;;;;;;;;;;;;13.55;61.19;98291.19;4962041;28;6799;-70
2021/12/28 08:19:48;;;;;;;;;;;;;;;13.63;61.35;98298.06;4975479;28;7076;-70
2021/12/28 08:22:14;;;;;;;;;;;;;;;13.68;60.68;98293.78;4945395;28;6891;-70
2021/12/28 08:24:40;;;;;;;;;;;;;;;13.73;60.85;98289.50;4961413;28;6792;-70
2021/12/28 08:27:05;;;;;;;;;;;;;;;13.74;61.26;98292.09;4959704;28;6784;-70
2021/12/28 08:29:31;;;;;;;;;;;;;;;13.73;60.45;98285.22;4962744;28;7150;-70
2021/12/28 08:31:57;;;;;;;;;;;;;;;13.72;61.38;98293.81;4961505;28;9857;-70
2021/12/28 08:34:23;;;;;;;;;;;;;;;13.74;61.48;98286.94;4961698;28;6875;-70
2021/12/28 08:36:49;;;;;;;;;;;;;;;13.78;60.85;98276.63;4961096;28;6875;-70
2021/12/28 08:39:14;;;;;;;;;;;;;;;13.80;61.17;98280.06;4958248;28;6999;-70
2021/12/28 08:41:40;;;;;;;;;;;;;;;13.85;61.33;98278.34;4978634;28;6787;-70
2021/12/28 08:44:06;;;;;;;;;;;;;;;13.92;60.60;98271.50;4958781;28;6795;-70
2021/12/28 08:46:32;;;;;;;;;;;;;;;13.98;60.92;98269.75;4962031;28;6868;-70
2021/12/28 08:48:57;;;;;;;;;;;;;;;14.03;60.86;98257.75;4960907;28;6796;-70
2021/12/28 08:51:23;;;;;;;;;;;;;;;14.11;60.70;98264.63;4960653;28;7646;-70
2021/12/28 08:53:49;;;;;;;;;;;;;;;14.18;61.19;98266.31;4960950;28;6999;-70
2021/12/28 08:56:15;;;;;;;;;;;;;;;14.24;60.62;98266.31;4958689;28;7877;-70
2021/12/28 08:58:40;;;;;;;;;;;;;;;14.30;60.98;98261.19;4962769;28;6792;-70
2021/12/28 09:01:06;;;;;;;;;;;;;;;14.37;61.29;98274.03;4959496;28;6875;-70
2021/12/28 09:03:32;;;;;;;;;;;;;;;14.41;60.57;98274.03;4960963;28;7061;-70
2021/12/28 09:06:00;;;;;;;;;;;;;;;14.41;59.89;98273.19;4961607;28;6788;-70
2021/12/28 09:08:26;;;;;;;;;;;;;;;14.36;59.63;98274.91;4959716;28;6812;-70
2021/12/28 09:10:52;;;;;;;;;;;;;;;14.31;60.39;98277.47;4959609;28;6811;-70
2021/12/28 09:13:18;;;;;;;;;;;;;;;14.28;61.17;98280.06;4961354;28;6803;-70
2021/12/28 09:15:45;;;;;;;;;;;;;;;14.25;60.73;98275.78;4962419;28;6828;-70
2021/12/28 09:18:11;;;;;;;;;;;;;;;14.27;60.46;98276.63;4961801;28;7196;-70
2021/12/28 09:20:37;;;;;;;;;;;;;;;14.27;61.12;98279.19;4957806;28;7211;-70
2021/12/28 09:23:04;;;;;;;;;;;;;;;14.25;60.76;98268.03;4942906;28;7205;-70
2021/12/28 09:25:29;;;;;;;;;;;;;;;14.27;61.74;98265.47;4958778;28;7353;-70
2021/12/28 09:27:56;;;;;;;;;;;;;;;14.28;61.14;98265.44;4960578;28;6815;-70
2021/12/28 09:30:21;;;;;;;;;;;;;;;14.28;61.34;98278.34;4960718;28;6888;-70
2021/12/28 09:32:48;;;;;;;;;;;;;;;14.30;61.60;98283.50;4959929;28;7148;-70
2021/12/28 09:35:14;;;;;;;;;;;;;;;14.30;61.43;98274.06;4960285;28;6818;-70
2021/12/28 09:37:40;;;;;;;;;;;;;;;14.31;61.63;98285.22;4957008;28;6803;-70
2021/12/28 09:40:11;;;;;;;;;;;;;;;14.34;61.60;98276.63;4960419;28;7014;-70
2021/12/28 09:42:37;;;;;;;;;;;;;;;14.34;61.22;98277.50;4961560;28;6812;-70
2021/12/28 09:45:06;;;;;;;;;;;;;;;14.37;61.65;98269.75;4973315;28;6808;-70
2021/12/28 09:47:32;;;;;;;;;;;;;;;14.38;61.36;98278.31;4960617;28;7063;-70
2021/12/28 09:49:58;;;;;;;;;;;;;;;14.37;61.34;98267.16;4959192;28;6808;-70
2021/12/28 09:52:24;;;;;;;;;;;;;;;14.40;61.89;98256.00;4975268;28;6826;-70
2021/12/28 09:54:49;;;;;;;;;;;;;;;14.42;62.35;98255.13;4943677;28;6984;-70
2021/12/28 09:57:18;;;;;;;;;;;;;;;14.46;61.89;98243.09;4958687;28;7841;-70
2021/12/28 09:59:46;;;;;;;;;;;;;;;14.53;61.59;98246.50;4960500;28;7030;-70
2021/12/28 10:02:13;;;;;;;;;;;;;;;14.62;62.11;98246.47;4959229;28;7018;-70
2021/12/28 10:04:59;;;;;;;;;;;;;;;14.75;61.51;98239.59;4959102;28;6816;-70
2021/12/28 10:07:29;;;;;;;;;;;;;;;14.86;61.27;98245.56;4974383;28;6998;-71
2021/12/28 10:09:56;;;;;;;;;;;;;;;14.95;61.12;98239.53;4960907;28;6907;-71
2021/12/28 10:12:35;;;;;;;;;;;;;;;15.02;60.79;98231.75;4956917;28;6891;-71
2021/12/28 10:15:08;;;;;;;;;;;;;;;14.97;60.66;98227.47;4961942;28;7209;-71
2021/12/28 10:17:36;;;;;;;;;;;;;;;14.90;60.44;98230.09;4970969;28;7173;-71
2021/12/28 10:20:21;;;;;;;;;;;;;;;14.84;60.73;98221.50;4957446;28;6796;-71
2021/12/28 10:22:53;;;;;;;;;;;;;;;14.80;60.73;98224.13;4944717;28;6824;-71
2021/12/28 10:25:25;;;;;;;;;;;;;;;14.79;61.62;98222.41;4956052;28;8036;-71
2021/12/28 10:28:01;;;;;;;;;;;;;;;14.80;61.85;98224.13;4941048;28;7029;-71
2021/12/28 10:30:28;;;;;;;;;;;;;;;14.81;61.59;98215.50;4956487;28;6812;-71
2021/12/28 10:33:00;;;;;;;;;;;;;;;14.80;62.03;98214.66;4959776;28;6824;-71
2021/12/28 10:35:33;;;;;;;;;;;;;;;14.80;61.47;98201.78;4958460;28;6811;-71
2021/12/28 10:38:07;;;;;;;;;;;;;;;14.78;61.95;98193.19;4957939;28;6895;-71
2021/12/28 10:40:39;;;;;;;;;;;;;;;14.84;62.42;98185.41;4959495;28;7151;-71
2021/12/28 10:43:20;;;;;;;;;;;;;;;14.88;61.62;98183.69;4961403;28;8026;-71
2021/12/28 10:46:08;;;;;;;;;;;;;;;14.92;61.31;98177.66;4957646;28;7246;-71
2021/12/28 10:48:39;;;;;;;;;;;;;;;14.94;62.05;98169.88;4956030;28;7211;-71
2021/12/28 10:51:13;;;;;;;;;;;;;;;14.93;61.63;98163.03;4958088;28;6819;-71
2021/12/28 10:56:23;;;;;;;;;;;;;;;14.94;61.84;98151.84;4958645;28;6815;-71
2021/12/28 10:58:52;;;;;;;;;;;;;;;14.97;62.02;98157.00;4960968;28;7427;-71
2021/12/28 11:01:28;;;;;;;;;;;;;;;15.01;61.72;98150.94;4959339;28;6888;-71
2021/12/28 11:04:04;;;;;;;;;;;;;;;15.07;61.10;98152.63;4959011;28;6812;-71
2021/12/28 11:06:34;;;;;;;;;;;;;;;15.09;61.71;98156.91;4957272;28;7241;-71
2021/12/28 11:09:02;;;;;;;;;;;;;;;15.09;60.54;98158.63;4952647;28;8927;-71
2021/12/28 11:11:28;;;;;;;;;;;;;;;15.04;61.19;98145.75;4959900;28;6807;-71
2021/12/28 11:14:12;;;;;;;;;;;;;;;14.98;61.70;98156.97;4973124;28;6808;-71
2021/12/28 11:16:39;;;;;;;;;;;;;;;14.93;61.22;98153.56;4957207;28;6900;-71
2021/12/28 11:19:10;;;;;;;;;;;;;;;14.89;62.17;98145.88;4957745;28;6796;-71
2021/12/28 11:21:50;;;;;;;;;;;;;;;14.85;61.81;98140.69;4960198;28;6789;-71
2021/12/28 11:24:17;;;;;;;;;;;;;;;14.81;62.04;98128.69;4959534;28;7182;-72
2021/12/28 11:26:53;;;;;;;;;;;;;;;14.81;62.04;98127.84;4942655;28;6796;-72
2021/12/28 11:29:30;;;;;;;;;;;;;;;14.79;62.90;98127.88;4958812;28;6816;-72
2021/12/28 11:32:05;;;;;;;;;;;;;;;14.79;63.05;98119.25;4958707;28;6896;-71
2021/12/28 11:34:37;;;;;;;;;;;;;;;14.77;62.61;98100.38;4957220;28;7076;-71
2021/12/28 11:37:20;;;;;;;;;;;;;;;14.76;63.27;98091.75;4957455;28;7139;-71
2021/12/28 11:39:55;;;;;;;;;;;;;;;14.76;63.79;98089.19;4958395;28;7073;-71
2021/12/28 11:42:23;;;;;;;;;;;;;;;14.76;63.28;98096.91;4959045;28;7383;-72
2021/12/28 11:44:51;;;;;;;;;;;;;;;14.75;63.36;98095.22;4959956;28;7905;-71
2021/12/28 11:47:20;;;;;;;;;;;;;;;14.75;63.20;98096.94;4959391;28;6855;-72
2021/12/28 11:49:47;;;;;;;;;;;;;;;14.71;63.07;98121.84;4962404;28;6989;-72
2021/12/28 11:52:19;;;;;;;;;;;;;;;14.69;63.08;98149.38;4944637;28;7004;-71
2021/12/28 11:54:49;;;;;;;;;;;;;;;14.66;62.95;98162.25;4963229;28;6831;-72
2021/12/28 11:57:30;;;;;;;;;;;;;;;14.56;62.87;98143.41;4954357;28;7159;-72
2021/12/28 12:00:10;;;;;;;;;;;;;;;14.43;61.79;98124.56;4964324;28;6892;-72
2021/12/28 12:02:51;;;;;;;;;;;;;;;14.27;61.80;98127.19;4962488;28;7140;-72
2021/12/28 12:05:27;;;;;;;;;;;;;;;14.19;62.37;98128.09;4961824;28;6853;-72
2021/12/28 12:08:07;;;;;;;;;;;;;;;14.15;62.15;98127.22;4945845;28;6984;-72
2021/12/28 12:10:37;;;;;;;;;;;;;;;14.16;62.15;98123.78;4962606;28;7229;-72
2021/12/28 12:13:16;;;;;;;;;;;;;;;14.19;62.25;98128.91;4944823;28;6871;-72
2021/12/28 12:15:47;;;;;;;;;;;;;;;14.20;62.03;98124.66;4961845;28;8230;-72
2021/12/28 12:18:17;;;;;;;;;;;;;;;14.22;61.39;98113.47;4959823;28;7264;-72
2021/12/28 12:20:51;;;;;;;;;;;;;;;14.22;61.58;98108.31;4961744;28;7044;-72
2021/12/28 12:23:21;;;;;;;;;;;;;;;14.24;60.69;98128.91;4942667;28;6998;-72
2021/12/28 12:26:23;;;;;;;;;;;;;;;14.27;59.97;98123.78;4961721;28;6808;-72
2021/12/28 12:28:53;;;;;;;;;;;;;;;14.28;59.38;98128.91;4953893;28;7062;-72
2021/12/28 12:31:36;;;;;;;;;;;;;;;14.27;59.69;98114.31;4960932;28;7453;-72
2021/12/28 12:34:25;;;;;;;;;;;;;;;14.29;59.81;98127.19;4959211;28;7901;-72
2021/12/28 12:36:51;;;;;;;;;;;;;;;14.30;59.03;98116.88;4960511;28;7134;-72
2021/12/28 12:39:23;;;;;;;;;;;;;;;14.31;59.45;98117.72;4961193;28;6808;-72
2021/12/28 12:41:55;;;;;;;;;;;;;;;14.32;59.27;98124.59;4962939;28;6895;-72
2021/12/28 12:44:26;;;;;;;;;;;;;;;14.33;58.87;98126.31;4961836;28;8283;-72
2021/12/28 12:47:04;;;;;;;;;;;;;;;14.35;57.66;98123.72;4959043;28;6812;-72
2021/12/28 12:49:32;;;;;;;;;;;;;;;14.36;57.65;98122.88;4960454;28;6816;-72
2021/12/28 12:52:18;;;;;;;;;;;;;;;14.38;57.36;98105.66;4960477;28;6891;-72
2021/12/28 12:54:49;;;;;;;;;;;;;;;14.39;57.07;98105.69;4961451;28;6815;-72
2021/12/28 12:57:24;;;;;;;;;;;;;;;14.41;56.51;98103.09;4959781;28;7210;-72
2021/12/28 13:00:19;;;;;;;;;;;;;;;14.47;57.08;98097.91;4960442;28;8311;-72
2021/12/28 13:02:57;;;;;;;;;;;;;;;14.55;57.11;98106.44;4958133;28;8068;-72
2021/12/28 13:05:23;;;;;;;;;;;;;;;14.72;57.19;98092.63;4960309;28;6978;-72
2021/12/28 13:07:52;;;;;;;;;;;;;;;14.87;56.08;98076.22;4942449;28;7052;-72
2021/12/28 13:10:28;;;;;;;;;;;;;;;14.98;55.37;98074.44;4962210;28;7081;-72